sensor_id;sensor_type;location;lat;lon;timestamp;P1;durP1;ratioP1;P2;durP2;ratioP2
3997;SDS011;61314;53.444;9.902;2022-10-29T00:02:05;32.33;;;10.83;;
3997;SDS011;61314;53.444;9.902;2022-10-29T00:04:32;31.30;;;10.27;;
3997;SDS011;61314;53.444;9.902;2022-10-29T00:06:59;22.20;;;10.00;;
3997;SDS011;61314;53.444;9.902;2022-10-29T00:09:26;37.23;;;10.37;;
3997;SDS011;61314;53.444;9.902;2022-10-29T00:11:53;24.43;;;11.50;;
3997;SDS011;61314;53.444;9.902;2022-10-29T00:14:20;19.10;;;9.53;;
3997;SDS011;61314;53.444;9.902;2022-10-29T00:16:47;19.53;;;9.80;;
3997;SDS011;61314;53.444;9.902;2022-10-29T00:19:14;21.07;;;8.20;;
3997;SDS011;61314;53.444;9.902;2022-10-29T00:21:41;19.87;;;8.47;;
3997;SDS011;61314;53.444;9.902;2022-10-29T00:24:09;16.13;;;8.20;;
3997;SDS011;61314;53.444;9.902;2022-10-29T00:26:36;17.80;;;8.23;;
3997;SDS011;61314;53.444;9.902;2022-10-29T00:29:03;26.83;;;8.00;;
3997;SDS011;61314;53.444;9.902;2022-10-29T00:31:30;24.83;;;9.60;;
3997;SDS011;61314;53.444;9.902;2022-10-29T00:33:57;26.47;;;8.50;;
3997;SDS011;61314;53.444;9.902;2022-10-29T00:36:25;16.43;;;8.20;;
3997;SDS011;61314;53.444;9.902;2022-10-29T00:38:52;22.90;;;9.13;;
3997;SDS011;61314;53.444;9.902;2022-10-29T00:41:21;24.30;;;8.17;;
3997;SDS011;61314;53.444;9.902;2022-10-29T00:43:49;21.53;;;8.80;;
3997;SDS011;61314;53.444;9.902;2022-10-29T00:46:20;22.43;;;8.87;;
3997;SDS011;61314;53.444;9.902;2022-10-29T00:48:48;22.40;;;9.60;;
3997;SDS011;61314;53.444;9.902;2022-10-29T00:51:17;29.33;;;9.00;;
3997;SDS011;61314;53.444;9.902;2022-10-29T00:53:46;24.10;;;8.00;;
3997;SDS011;61314;53.444;9.902;2022-10-29T00:56:14;18.50;;;8.43;;
3997;SDS011;61314;53.444;9.902;2022-10-29T00:58:42;27.50;;;7.87;;
3997;SDS011;61314;53.444;9.902;2022-10-29T01:01:09;26.83;;;8.90;;
3997;SDS011;61314;53.444;9.902;2022-10-29T01:03:35;18.70;;;8.90;;
3997;SDS011;61314;53.444;9.902;2022-10-29T01:06:04;21.90;;;9.43;;
3997;SDS011;61314;53.444;9.902;2022-10-29T01:08:31;24.20;;;9.27;;
3997;SDS011;61314;53.444;9.902;2022-10-29T01:13:46;16.73;;;8.60;;
3997;SDS011;61314;53.444;9.902;2022-10-29T01:19:23;22.00;;;9.10;;
3997;SDS011;61314;53.444;9.902;2022-10-29T01:25:26;20.10;;;9.67;;
3997;SDS011;61314;53.444;9.902;2022-10-29T01:28:23;30.70;;;10.23;;
3997;SDS011;61314;53.444;9.902;2022-10-29T01:30:58;38.80;;;10.17;;
3997;SDS011;61314;53.444;9.902;2022-10-29T01:36:16;33.00;;;11.07;;
3997;SDS011;61314;53.444;9.902;2022-10-29T01:38:50;34.33;;;10.40;;
3997;SDS011;61314;53.444;9.902;2022-10-29T01:41:24;21.77;;;8.90;;
3997;SDS011;61314;53.444;9.902;2022-10-29T01:43:54;24.23;;;9.50;;
3997;SDS011;61314;53.444;9.902;2022-10-29T01:46:29;24.80;;;10.97;;
3997;SDS011;61314;53.444;9.902;2022-10-29T01:48:59;25.23;;;9.50;;
3997;SDS011;61314;53.444;9.902;2022-10-29T01:51:29;32.37;;;10.10;;
3997;SDS011;61314;53.444;9.902;2022-10-29T01:53:57;31.73;;;10.70;;
3997;SDS011;61314;53.444;9.902;2022-10-29T01:56:25;21.30;;;9.97;;
3997;SDS011;61314;53.444;9.902;2022-10-29T01:58:53;23.40;;;9.77;;
3997;SDS011;61314;53.444;9.902;2022-10-29T02:04:23;24.23;;;11.33;;
3997;SDS011;61314;53.444;9.902;2022-10-29T02:07:13;20.50;;;9.00;;
3997;SDS011;61314;53.444;9.902;2022-10-29T02:10:15;27.47;;;10.57;;
3997;SDS011;61314;53.444;9.902;2022-10-29T02:12:51;27.27;;;9.53;;
3997;SDS011;61314;53.444;9.902;2022-10-29T02:18:07;38.40;;;12.23;;
3997;SDS011;61314;53.444;9.902;2022-10-29T02:20:34;28.43;;;9.53;;
3997;SDS011;61314;53.444;9.902;2022-10-29T02:23:07;25.00;;;10.83;;
3997;SDS011;61314;53.444;9.902;2022-10-29T02:25:33;25.50;;;10.13;;
3997;SDS011;61314;53.444;9.902;2022-10-29T02:28:00;30.60;;;11.83;;
3997;SDS011;61314;53.444;9.902;2022-10-29T02:30:27;31.97;;;10.93;;
3997;SDS011;61314;53.444;9.902;2022-10-29T02:32:54;28.38;;;11.30;;
3997;SDS011;61314;53.444;9.902;2022-10-29T02:35:21;23.73;;;10.90;;
3997;SDS011;61314;53.444;9.902;2022-10-29T02:37:48;30.50;;;11.20;;
3997;SDS011;61314;53.444;9.902;2022-10-29T02:40:15;34.80;;;10.50;;
3997;SDS011;61314;53.444;9.902;2022-10-29T02:42:41;29.43;;;11.90;;
3997;SDS011;61314;53.444;9.902;2022-10-29T02:45:08;32.77;;;11.23;;
3997;SDS011;61314;53.444;9.902;2022-10-29T02:47:35;23.93;;;11.00;;
3997;SDS011;61314;53.444;9.902;2022-10-29T02:50:02;25.83;;;10.27;;
3997;SDS011;61314;53.444;9.902;2022-10-29T02:52:28;21.03;;;9.73;;
3997;SDS011;61314;53.444;9.902;2022-10-29T02:54:55;28.80;;;11.03;;
3997;SDS011;61314;53.444;9.902;2022-10-29T02:57:21;26.73;;;9.83;;
3997;SDS011;61314;53.444;9.902;2022-10-29T02:59:48;33.70;;;10.27;;
3997;SDS011;61314;53.444;9.902;2022-10-29T03:02:14;32.83;;;10.60;;
3997;SDS011;61314;53.444;9.902;2022-10-29T03:04:41;33.13;;;9.97;;
3997;SDS011;61314;53.444;9.902;2022-10-29T03:07:09;37.97;;;10.57;;
3997;SDS011;61314;53.444;9.902;2022-10-29T03:09:36;25.47;;;9.43;;
3997;SDS011;61314;53.444;9.902;2022-10-29T03:12:02;20.47;;;8.90;;
3997;SDS011;61314;53.444;9.902;2022-10-29T03:14:29;29.00;;;10.10;;
3997;SDS011;61314;53.444;9.902;2022-10-29T03:16:56;28.67;;;10.73;;
3997;SDS011;61314;53.444;9.902;2022-10-29T03:19:22;28.60;;;9.90;;
3997;SDS011;61314;53.444;9.902;2022-10-29T03:21:49;30.50;;;11.00;;
3997;SDS011;61314;53.444;9.902;2022-10-29T03:24:15;15.30;;;9.47;;
3997;SDS011;61314;53.444;9.902;2022-10-29T03:26:42;28.93;;;10.20;;
3997;SDS011;61314;53.444;9.902;2022-10-29T03:29:08;29.93;;;9.87;;
3997;SDS011;61314;53.444;9.902;2022-10-29T03:31:35;30.43;;;10.03;;
3997;SDS011;61314;53.444;9.902;2022-10-29T03:34:02;21.30;;;8.80;;
3997;SDS011;61314;53.444;9.902;2022-10-29T03:36:28;25.73;;;8.77;;
3997;SDS011;61314;53.444;9.902;2022-10-29T03:38:55;23.80;;;10.13;;
3997;SDS011;61314;53.444;9.902;2022-10-29T03:41:22;24.07;;;10.57;;
3997;SDS011;61314;53.444;9.902;2022-10-29T03:43:48;22.67;;;10.17;;
3997;SDS011;61314;53.444;9.902;2022-10-29T03:46:15;19.33;;;9.83;;
3997;SDS011;61314;53.444;9.902;2022-10-29T03:48:42;22.80;;;9.80;;
3997;SDS011;61314;53.444;9.902;2022-10-29T03:51:09;20.77;;;10.10;;
3997;SDS011;61314;53.444;9.902;2022-10-29T03:53:36;34.13;;;10.80;;
3997;SDS011;61314;53.444;9.902;2022-10-29T03:56:03;20.20;;;8.83;;
3997;SDS011;61314;53.444;9.902;2022-10-29T03:58:31;22.33;;;9.07;;
3997;SDS011;61314;53.444;9.902;2022-10-29T04:01:05;21.53;;;9.70;;
3997;SDS011;61314;53.444;9.902;2022-10-29T04:03:33;22.77;;;8.57;;
3997;SDS011;61314;53.444;9.902;2022-10-29T04:06:00;25.57;;;9.70;;
3997;SDS011;61314;53.444;9.902;2022-10-29T04:08:28;26.40;;;9.77;;
3997;SDS011;61314;53.444;9.902;2022-10-29T04:10:55;22.17;;;9.40;;
3997;SDS011;61314;53.444;9.902;2022-10-29T04:13:22;19.70;;;9.47;;
3997;SDS011;61314;53.444;9.902;2022-10-29T04:15:52;23.00;;;9.87;;
3997;SDS011;61314;53.444;9.902;2022-10-29T04:18:19;23.57;;;10.53;;
3997;SDS011;61314;53.444;9.902;2022-10-29T04:20:46;19.40;;;9.30;;
3997;SDS011;61314;53.444;9.902;2022-10-29T04:23:33;22.97;;;9.77;;
3997;SDS011;61314;53.444;9.902;2022-10-29T04:26:20;21.70;;;8.70;;
3997;SDS011;61314;53.444;9.902;2022-10-29T04:29:07;22.60;;;10.20;;
3997;SDS011;61314;53.444;9.902;2022-10-29T04:31:35;29.30;;;10.37;;
3997;SDS011;61314;53.444;9.902;2022-10-29T04:34:02;20.90;;;10.60;;
3997;SDS011;61314;53.444;9.902;2022-10-29T04:36:29;28.63;;;11.07;;
3997;SDS011;61314;53.444;9.902;2022-10-29T04:38:56;24.00;;;10.90;;
3997;SDS011;61314;53.444;9.902;2022-10-29T04:41:23;25.13;;;10.17;;
3997;SDS011;61314;53.444;9.902;2022-10-29T04:43:50;25.10;;;10.13;;
3997;SDS011;61314;53.444;9.902;2022-10-29T04:46:17;23.57;;;12.50;;
3997;SDS011;61314;53.444;9.902;2022-10-29T04:48:44;21.80;;;11.03;;
3997;SDS011;61314;53.444;9.902;2022-10-29T04:51:16;26.97;;;11.13;;
3997;SDS011;61314;53.444;9.902;2022-10-29T04:53:44;22.57;;;10.93;;
3997;SDS011;61314;53.444;9.902;2022-10-29T04:56:11;18.43;;;10.03;;
3997;SDS011;61314;53.444;9.902;2022-10-29T04:58:38;28.73;;;11.13;;
3997;SDS011;61314;53.444;9.902;2022-10-29T05:01:05;28.23;;;10.77;;
3997;SDS011;61314;53.444;9.902;2022-10-29T05:03:33;27.80;;;10.03;;
3997;SDS011;61314;53.444;9.902;2022-10-29T05:06:03;37.07;;;12.07;;
3997;SDS011;61314;53.444;9.902;2022-10-29T05:08:31;29.83;;;12.43;;
3997;SDS011;61314;53.444;9.902;2022-10-29T05:11:04;19.17;;;10.20;;
3997;SDS011;61314;53.444;9.902;2022-10-29T05:13:31;27.57;;;12.10;;
3997;SDS011;61314;53.444;9.902;2022-10-29T05:15:58;31.03;;;11.17;;
3997;SDS011;61314;53.444;9.902;2022-10-29T05:18:25;40.00;;;11.73;;
3997;SDS011;61314;53.444;9.902;2022-10-29T05:20:52;19.47;;;10.20;;
3997;SDS011;61314;53.444;9.902;2022-10-29T05:23:19;36.00;;;12.03;;
3997;SDS011;61314;53.444;9.902;2022-10-29T05:25:46;21.70;;;11.63;;
3997;SDS011;61314;53.444;9.902;2022-10-29T05:28:15;30.37;;;11.03;;
3997;SDS011;61314;53.444;9.902;2022-10-29T05:30:46;35.37;;;12.03;;
3997;SDS011;61314;53.444;9.902;2022-10-29T05:33:13;22.50;;;10.57;;
3997;SDS011;61314;53.444;9.902;2022-10-29T05:35:41;29.10;;;11.47;;
3997;SDS011;61314;53.444;9.902;2022-10-29T05:38:08;22.30;;;10.37;;
3997;SDS011;61314;53.444;9.902;2022-10-29T05:40:35;28.50;;;10.87;;
3997;SDS011;61314;53.444;9.902;2022-10-29T05:43:02;26.10;;;10.77;;
3997;SDS011;61314;53.444;9.902;2022-10-29T05:45:30;18.13;;;9.33;;
3997;SDS011;61314;53.444;9.902;2022-10-29T05:47:57;25.23;;;10.53;;
3997;SDS011;61314;53.444;9.902;2022-10-29T05:50:25;22.17;;;10.27;;
3997;SDS011;61314;53.444;9.902;2022-10-29T05:52:53;16.17;;;8.83;;
3997;SDS011;61314;53.444;9.902;2022-10-29T05:55:21;20.63;;;9.90;;
3997;SDS011;61314;53.444;9.902;2022-10-29T05:57:48;16.43;;;9.43;;
3997;SDS011;61314;53.444;9.902;2022-10-29T06:00:15;29.33;;;9.87;;
3997;SDS011;61314;53.444;9.902;2022-10-29T06:02:42;24.57;;;10.53;;
3997;SDS011;61314;53.444;9.902;2022-10-29T06:05:09;20.60;;;9.80;;
3997;SDS011;61314;53.444;9.902;2022-10-29T06:07:36;15.83;;;8.83;;
3997;SDS011;61314;53.444;9.902;2022-10-29T06:10:03;17.27;;;9.97;;
3997;SDS011;61314;53.444;9.902;2022-10-29T06:12:31;23.63;;;10.30;;
3997;SDS011;61314;53.444;9.902;2022-10-29T06:15:00;13.20;;;10.07;;
3997;SDS011;61314;53.444;9.902;2022-10-29T06:17:26;19.23;;;10.43;;
3997;SDS011;61314;53.444;9.902;2022-10-29T06:19:53;17.03;;;9.30;;
3997;SDS011;61314;53.444;9.902;2022-10-29T06:22:19;16.00;;;10.17;;
3997;SDS011;61314;53.444;9.902;2022-10-29T06:24:46;21.23;;;9.33;;
3997;SDS011;61314;53.444;9.902;2022-10-29T06:27:13;14.77;;;8.80;;
3997;SDS011;61314;53.444;9.902;2022-10-29T06:29:39;28.27;;;10.70;;
3997;SDS011;61314;53.444;9.902;2022-10-29T06:32:06;19.30;;;11.17;;
3997;SDS011;61314;53.444;9.902;2022-10-29T06:34:32;23.73;;;11.83;;
3997;SDS011;61314;53.444;9.902;2022-10-29T06:36:59;18.50;;;10.43;;
3997;SDS011;61314;53.444;9.902;2022-10-29T06:39:26;16.87;;;10.67;;
3997;SDS011;61314;53.444;9.902;2022-10-29T06:41:52;24.27;;;11.10;;
3997;SDS011;61314;53.444;9.902;2022-10-29T06:44:19;27.10;;;14.47;;
3997;SDS011;61314;53.444;9.902;2022-10-29T06:46:46;26.30;;;14.07;;
3997;SDS011;61314;53.444;9.902;2022-10-29T06:49:13;26.00;;;12.97;;
3997;SDS011;61314;53.444;9.902;2022-10-29T06:51:39;28.30;;;16.10;;
3997;SDS011;61314;53.444;9.902;2022-10-29T06:54:06;32.17;;;15.80;;
3997;SDS011;61314;53.444;9.902;2022-10-29T06:56:32;31.60;;;15.10;;
3997;SDS011;61314;53.444;9.902;2022-10-29T06:58:59;35.93;;;18.50;;
3997;SDS011;61314;53.444;9.902;2022-10-29T07:01:26;37.30;;;18.83;;
3997;SDS011;61314;53.444;9.902;2022-10-29T07:03:57;33.83;;;18.07;;
3997;SDS011;61314;53.444;9.902;2022-10-29T07:06:26;32.67;;;18.17;;
3997;SDS011;61314;53.444;9.902;2022-10-29T07:08:53;34.87;;;17.73;;
3997;SDS011;61314;53.444;9.902;2022-10-29T07:11:20;43.87;;;17.87;;
3997;SDS011;61314;53.444;9.902;2022-10-29T07:13:46;53.60;;;21.73;;
3997;SDS011;61314;53.444;9.902;2022-10-29T07:16:13;44.53;;;18.20;;
3997;SDS011;61314;53.444;9.902;2022-10-29T07:18:39;42.20;;;19.30;;
3997;SDS011;61314;53.444;9.902;2022-10-29T07:21:06;45.87;;;19.20;;
3997;SDS011;61314;53.444;9.902;2022-10-29T07:23:32;38.60;;;20.30;;
3997;SDS011;61314;53.444;9.902;2022-10-29T07:25:59;41.57;;;19.63;;
3997;SDS011;61314;53.444;9.902;2022-10-29T07:28:25;40.03;;;19.83;;
3997;SDS011;61314;53.444;9.902;2022-10-29T07:30:56;45.50;;;20.77;;
3997;SDS011;61314;53.444;9.902;2022-10-29T07:33:26;56.50;;;24.10;;
3997;SDS011;61314;53.444;9.902;2022-10-29T07:35:55;57.80;;;24.60;;
3997;SDS011;61314;53.444;9.902;2022-10-29T07:38:23;51.80;;;24.47;;
3997;SDS011;61314;53.444;9.902;2022-10-29T07:40:51;53.93;;;25.63;;
3997;SDS011;61314;53.444;9.902;2022-10-29T07:43:19;68.73;;;25.60;;
3997;SDS011;61314;53.444;9.902;2022-10-29T07:45:47;60.50;;;26.97;;
3997;SDS011;61314;53.444;9.902;2022-10-29T07:48:15;62.50;;;26.87;;
3997;SDS011;61314;53.444;9.902;2022-10-29T07:50:42;60.83;;;28.40;;
3997;SDS011;61314;53.444;9.902;2022-10-29T07:53:09;57.57;;;27.50;;
3997;SDS011;61314;53.444;9.902;2022-10-29T07:55:36;62.20;;;28.73;;
3997;SDS011;61314;53.444;9.902;2022-10-29T07:58:03;67.80;;;28.30;;
3997;SDS011;61314;53.444;9.902;2022-10-29T08:00:33;71.07;;;30.20;;
3997;SDS011;61314;53.444;9.902;2022-10-29T08:03:02;61.67;;;28.47;;
3997;SDS011;61314;53.444;9.902;2022-10-29T08:05:28;67.63;;;29.33;;
3997;SDS011;61314;53.444;9.902;2022-10-29T08:07:56;62.93;;;28.80;;
3997;SDS011;61314;53.444;9.902;2022-10-29T08:10:23;69.57;;;27.90;;
3997;SDS011;61314;53.444;9.902;2022-10-29T08:12:51;66.33;;;30.30;;
3997;SDS011;61314;53.444;9.902;2022-10-29T08:15:19;64.40;;;26.50;;
3997;SDS011;61314;53.444;9.902;2022-10-29T08:17:46;59.70;;;26.17;;
3997;SDS011;61314;53.444;9.902;2022-10-29T08:20:13;62.33;;;27.27;;
3997;SDS011;61314;53.444;9.902;2022-10-29T08:22:40;66.30;;;26.60;;
3997;SDS011;61314;53.444;9.902;2022-10-29T08:25:07;50.83;;;26.20;;
3997;SDS011;61314;53.444;9.902;2022-10-29T08:27:34;61.47;;;26.50;;
3997;SDS011;61314;53.444;9.902;2022-10-29T08:30:01;56.27;;;25.23;;
3997;SDS011;61314;53.444;9.902;2022-10-29T08:32:28;52.60;;;23.90;;
3997;SDS011;61314;53.444;9.902;2022-10-29T08:34:55;51.53;;;23.13;;
3997;SDS011;61314;53.444;9.902;2022-10-29T08:37:21;49.23;;;22.70;;
3997;SDS011;61314;53.444;9.902;2022-10-29T08:39:48;57.20;;;24.03;;
3997;SDS011;61314;53.444;9.902;2022-10-29T08:50:36;49.30;;;24.07;;
3997;SDS011;61314;53.444;9.902;2022-10-29T08:53:23;43.90;;;23.40;;
3997;SDS011;61314;53.444;9.902;2022-10-29T08:55:58;66.40;;;24.03;;
3997;SDS011;61314;53.444;9.902;2022-10-29T08:58:30;48.00;;;23.43;;
3997;SDS011;61314;53.444;9.902;2022-10-29T09:01:17;52.37;;;25.10;;
3997;SDS011;61314;53.444;9.902;2022-10-29T09:03:48;50.30;;;23.33;;
3997;SDS011;61314;53.444;9.902;2022-10-29T09:06:23;42.67;;;24.33;;
3997;SDS011;61314;53.444;9.902;2022-10-29T09:09:16;48.70;;;23.00;;
3997;SDS011;61314;53.444;9.902;2022-10-29T09:14:38;47.63;;;21.83;;
3997;SDS011;61314;53.444;9.902;2022-10-29T09:17:15;41.00;;;20.10;;
3997;SDS011;61314;53.444;9.902;2022-10-29T09:22:41;46.83;;;23.10;;
3997;SDS011;61314;53.444;9.902;2022-10-29T09:25:29;40.00;;;21.83;;
3997;SDS011;61314;53.444;9.902;2022-10-29T09:28:10;44.13;;;21.00;;
3997;SDS011;61314;53.444;9.902;2022-10-29T09:31:21;38.83;;;19.47;;
3997;SDS011;61314;53.444;9.902;2022-10-29T09:33:59;37.00;;;19.10;;
3997;SDS011;61314;53.444;9.902;2022-10-29T09:36:31;35.70;;;18.43;;
3997;SDS011;61314;53.444;9.902;2022-10-29T09:38:59;35.93;;;17.60;;
3997;SDS011;61314;53.444;9.902;2022-10-29T09:41:32;31.63;;;18.83;;
3997;SDS011;61314;53.444;9.902;2022-10-29T09:46:44;38.30;;;20.00;;
3997;SDS011;61314;53.444;9.902;2022-10-29T09:54:47;43.73;;;18.23;;
3997;SDS011;61314;53.444;9.902;2022-10-29T09:57:20;41.67;;;19.37;;
3997;SDS011;61314;53.444;9.902;2022-10-29T09:59:59;41.77;;;19.73;;
3997;SDS011;61314;53.444;9.902;2022-10-29T10:02:42;50.50;;;21.30;;
3997;SDS011;61314;53.444;9.902;2022-10-29T10:05:24;39.50;;;19.40;;
3997;SDS011;61314;53.444;9.902;2022-10-29T10:08:06;48.43;;;20.77;;
3997;SDS011;61314;53.444;9.902;2022-10-29T10:10:35;45.30;;;19.33;;
3997;SDS011;61314;53.444;9.902;2022-10-29T10:13:04;52.20;;;20.60;;
3997;SDS011;61314;53.444;9.902;2022-10-29T10:15:32;39.67;;;19.80;;
3997;SDS011;61314;53.444;9.902;2022-10-29T10:18:05;36.00;;;20.10;;
3997;SDS011;61314;53.444;9.902;2022-10-29T10:20:46;39.07;;;18.87;;
3997;SDS011;61314;53.444;9.902;2022-10-29T10:23:25;41.83;;;19.43;;
3997;SDS011;61314;53.444;9.902;2022-10-29T10:25:53;41.27;;;18.77;;
3997;SDS011;61314;53.444;9.902;2022-10-29T10:28:29;35.97;;;18.47;;
3997;SDS011;61314;53.444;9.902;2022-10-29T10:31:06;49.60;;;19.17;;
3997;SDS011;61314;53.444;9.902;2022-10-29T10:33:48;36.33;;;18.23;;
3997;SDS011;61314;53.444;9.902;2022-10-29T10:36:17;39.10;;;21.07;;
3997;SDS011;61314;53.444;9.902;2022-10-29T10:38:48;48.87;;;19.00;;
3997;SDS011;61314;53.444;9.902;2022-10-29T10:41:21;47.70;;;18.60;;
3997;SDS011;61314;53.444;9.902;2022-10-29T10:43:50;47.67;;;18.33;;
3997;SDS011;61314;53.444;9.902;2022-10-29T10:46:22;49.00;;;19.67;;
3997;SDS011;61314;53.444;9.902;2022-10-29T10:48:58;39.20;;;17.20;;
3997;SDS011;61314;53.444;9.902;2022-10-29T10:51:38;30.00;;;15.03;;
3997;SDS011;61314;53.444;9.902;2022-10-29T10:54:22;31.90;;;16.70;;
3997;SDS011;61314;53.444;9.902;2022-10-29T10:56:59;38.63;;;18.23;;
3997;SDS011;61314;53.444;9.902;2022-10-29T10:59:39;27.47;;;14.43;;
3997;SDS011;61314;53.444;9.902;2022-10-29T11:05:18;36.00;;;12.20;;
3997;SDS011;61314;53.444;9.902;2022-10-29T11:07:57;36.60;;;10.50;;
3997;SDS011;61314;53.444;9.902;2022-10-29T11:10:29;24.40;;;10.70;;
3997;SDS011;61314;53.444;9.902;2022-10-29T11:13:04;30.80;;;10.50;;
3997;SDS011;61314;53.444;9.902;2022-10-29T11:15:37;32.40;;;10.33;;
3997;SDS011;61314;53.444;9.902;2022-10-29T11:21:27;14.00;;;7.70;;
3997;SDS011;61314;53.444;9.902;2022-10-29T11:24:21;20.03;;;8.60;;
3997;SDS011;61314;53.444;9.902;2022-10-29T11:26:59;30.30;;;8.73;;
3997;SDS011;61314;53.444;9.902;2022-10-29T11:29:36;14.53;;;7.73;;
3997;SDS011;61314;53.444;9.902;2022-10-29T11:32:09;14.03;;;7.87;;
3997;SDS011;61314;53.444;9.902;2022-10-29T11:37:41;13.57;;;7.30;;
3997;SDS011;61314;53.444;9.902;2022-10-29T11:40:43;20.00;;;6.10;;
3997;SDS011;61314;53.444;9.902;2022-10-29T11:43:19;20.00;;;7.10;;
3997;SDS011;61314;53.444;9.902;2022-10-29T11:46:06;17.77;;;7.07;;
3997;SDS011;61314;53.444;9.902;2022-10-29T11:48:58;24.30;;;7.70;;
3997;SDS011;61314;53.444;9.902;2022-10-29T11:54:25;23.63;;;6.00;;
3997;SDS011;61314;53.444;9.902;2022-10-29T12:00:02;20.13;;;7.23;;
3997;SDS011;61314;53.444;9.902;2022-10-29T12:05:24;16.07;;;6.43;;
3997;SDS011;61314;53.444;9.902;2022-10-29T12:11:10;14.83;;;6.13;;
3997;SDS011;61314;53.444;9.902;2022-10-29T12:22:43;11.57;;;5.63;;
3997;SDS011;61314;53.444;9.902;2022-10-29T12:25:44;17.40;;;6.27;;
3997;SDS011;61314;53.444;9.902;2022-10-29T12:28:39;22.63;;;6.50;;
3997;SDS011;61314;53.444;9.902;2022-10-29T12:31:22;14.17;;;5.97;;
3997;SDS011;61314;53.444;9.902;2022-10-29T12:34:02;10.43;;;5.13;;
3997;SDS011;61314;53.444;9.902;2022-10-29T12:36:47;19.67;;;6.57;;
3997;SDS011;61314;53.444;9.902;2022-10-29T12:39:28;14.33;;;6.07;;
3997;SDS011;61314;53.444;9.902;2022-10-29T12:42:04;19.70;;;8.13;;
3997;SDS011;61314;53.444;9.902;2022-10-29T12:44:43;22.47;;;7.80;;
3997;SDS011;61314;53.444;9.902;2022-10-29T12:47:25;12.00;;;6.47;;
3997;SDS011;61314;53.444;9.902;2022-10-29T12:50:21;21.20;;;6.80;;
3997;SDS011;61314;53.444;9.902;2022-10-29T12:55:53;10.30;;;6.60;;
3997;SDS011;61314;53.444;9.902;2022-10-29T13:04:25;12.17;;;7.00;;
3997;SDS011;61314;53.444;9.902;2022-10-29T13:06:57;18.83;;;7.07;;
3997;SDS011;61314;53.444;9.902;2022-10-29T13:09:26;12.83;;;7.23;;
3997;SDS011;61314;53.444;9.902;2022-10-29T13:11:55;10.13;;;5.90;;
3997;SDS011;61314;53.444;9.902;2022-10-29T13:17:16;22.60;;;7.90;;
3997;SDS011;61314;53.444;9.902;2022-10-29T13:19:51;12.40;;;5.87;;
3997;SDS011;61314;53.444;9.902;2022-10-29T13:30:36;8.57;;;5.00;;
3997;SDS011;61314;53.444;9.902;2022-10-29T13:41:36;25.80;;;5.87;;
3997;SDS011;61314;53.444;9.902;2022-10-29T13:44:09;18.30;;;7.53;;
3997;SDS011;61314;53.444;9.902;2022-10-29T13:49:17;16.20;;;5.80;;
3997;SDS011;61314;53.444;9.902;2022-10-29T13:52:00;12.27;;;6.47;;
3997;SDS011;61314;53.444;9.902;2022-10-29T13:54:45;15.33;;;6.57;;
3997;SDS011;61314;53.444;9.902;2022-10-29T14:10:30;10.50;;;5.10;;
3997;SDS011;61314;53.444;9.902;2022-10-29T14:13:05;17.90;;;7.23;;
3997;SDS011;61314;53.444;9.902;2022-10-29T14:18:44;12.07;;;6.77;;
3997;SDS011;61314;53.444;9.902;2022-10-29T14:24:04;17.80;;;7.90;;
3997;SDS011;61314;53.444;9.902;2022-10-29T14:26:33;18.53;;;6.97;;
3997;SDS011;61314;53.444;9.902;2022-10-29T14:29:15;12.17;;;6.13;;
3997;SDS011;61314;53.444;9.902;2022-10-29T14:31:45;12.07;;;6.17;;
3997;SDS011;61314;53.444;9.902;2022-10-29T14:34:23;10.63;;;6.87;;
3997;SDS011;61314;53.444;9.902;2022-10-29T14:36:55;14.20;;;6.80;;
3997;SDS011;61314;53.444;9.902;2022-10-29T14:39:26;12.93;;;6.87;;
3997;SDS011;61314;53.444;9.902;2022-10-29T14:42:30;13.00;;;6.80;;
3997;SDS011;61314;53.444;9.902;2022-10-29T14:45:03;21.13;;;6.80;;
3997;SDS011;61314;53.444;9.902;2022-10-29T14:47:33;20.50;;;6.27;;
3997;SDS011;61314;53.444;9.902;2022-10-29T14:50:02;15.47;;;6.47;;
3997;SDS011;61314;53.444;9.902;2022-10-29T14:52:39;10.67;;;6.10;;
3997;SDS011;61314;53.444;9.902;2022-10-29T14:55:36;16.30;;;6.67;;
3997;SDS011;61314;53.444;9.902;2022-10-29T14:58:13;10.03;;;5.10;;
3997;SDS011;61314;53.444;9.902;2022-10-29T15:03:31;16.00;;;6.90;;
3997;SDS011;61314;53.444;9.902;2022-10-29T15:06:19;10.40;;;6.40;;
3997;SDS011;61314;53.444;9.902;2022-10-29T15:09:32;13.13;;;6.60;;
3997;SDS011;61314;53.444;9.902;2022-10-29T15:11:56;10.53;;;5.70;;
3997;SDS011;61314;53.444;9.902;2022-10-29T15:14:52;9.40;;;6.37;;
3997;SDS011;61314;53.444;9.902;2022-10-29T15:17:25;14.13;;;6.53;;
3997;SDS011;61314;53.444;9.902;2022-10-29T15:19:57;17.57;;;7.30;;
3997;SDS011;61314;53.444;9.902;2022-10-29T15:22:34;16.17;;;7.50;;
3997;SDS011;61314;53.444;9.902;2022-10-29T15:25:04;13.77;;;6.30;;
3997;SDS011;61314;53.444;9.902;2022-10-29T15:27:36;13.23;;;6.13;;
3997;SDS011;61314;53.444;9.902;2022-10-29T15:30:05;18.57;;;7.10;;
3997;SDS011;61314;53.444;9.902;2022-10-29T15:32:32;20.80;;;8.10;;
3997;SDS011;61314;53.444;9.902;2022-10-29T15:34:59;14.63;;;7.77;;
3997;SDS011;61314;53.444;9.902;2022-10-29T15:39:59;25.83;;;8.67;;
3997;SDS011;61314;53.444;9.902;2022-10-29T15:42:40;16.80;;;8.40;;
3997;SDS011;61314;53.444;9.902;2022-10-29T15:50:01;19.10;;;10.57;;
3997;SDS011;61314;53.444;9.902;2022-10-29T15:52:32;17.23;;;9.17;;
3997;SDS011;61314;53.444;9.902;2022-10-29T15:55:04;19.43;;;10.53;;
3997;SDS011;61314;53.444;9.902;2022-10-29T15:57:38;21.87;;;9.23;;
3997;SDS011;61314;53.444;9.902;2022-10-29T16:00:06;24.93;;;9.07;;
3997;SDS011;61314;53.444;9.902;2022-10-29T16:02:33;12.60;;;9.33;;
3997;SDS011;61314;53.444;9.902;2022-10-29T16:05:00;14.47;;;8.77;;
3997;SDS011;61314;53.444;9.902;2022-10-29T16:07:26;16.53;;;10.97;;
3997;SDS011;61314;53.444;9.902;2022-10-29T16:09:53;21.23;;;11.93;;
3997;SDS011;61314;53.444;9.902;2022-10-29T16:12:23;24.23;;;12.87;;
3997;SDS011;61314;53.444;9.902;2022-10-29T16:14:50;19.93;;;12.00;;
3997;SDS011;61314;53.444;9.902;2022-10-29T16:17:17;19.77;;;10.70;;
3997;SDS011;61314;53.444;9.902;2022-10-29T16:19:46;23.13;;;11.67;;
3997;SDS011;61314;53.444;9.902;2022-10-29T16:22:13;24.47;;;12.70;;
3997;SDS011;61314;53.444;9.902;2022-10-29T16:24:53;24.83;;;13.33;;
3997;SDS011;61314;53.444;9.902;2022-10-29T16:27:20;24.00;;;14.90;;
3997;SDS011;61314;53.444;9.902;2022-10-29T16:29:47;25.40;;;12.87;;
3997;SDS011;61314;53.444;9.902;2022-10-29T16:32:20;26.40;;;12.57;;
3997;SDS011;61314;53.444;9.902;2022-10-29T16:34:48;26.45;;;12.80;;
3997;SDS011;61314;53.444;9.902;2022-10-29T16:37:16;24.67;;;14.40;;
3997;SDS011;61314;53.444;9.902;2022-10-29T16:39:44;24.27;;;13.63;;
3997;SDS011;61314;53.444;9.902;2022-10-29T16:42:20;27.40;;;14.50;;
3997;SDS011;61314;53.444;9.902;2022-10-29T16:44:53;28.33;;;14.67;;
3997;SDS011;61314;53.444;9.902;2022-10-29T16:47:20;31.40;;;16.23;;
3997;SDS011;61314;53.444;9.902;2022-10-29T16:49:47;33.87;;;14.40;;
3997;SDS011;61314;53.444;9.902;2022-10-29T16:52:13;31.30;;;15.70;;
3997;SDS011;61314;53.444;9.902;2022-10-29T16:54:47;24.40;;;14.03;;
3997;SDS011;61314;53.444;9.902;2022-10-29T16:57:14;26.63;;;16.20;;
3997;SDS011;61314;53.444;9.902;2022-10-29T16:59:40;35.07;;;16.80;;
3997;SDS011;61314;53.444;9.902;2022-10-29T17:02:08;32.83;;;15.17;;
3997;SDS011;61314;53.444;9.902;2022-10-29T17:04:36;22.77;;;13.10;;
3997;SDS011;61314;53.444;9.902;2022-10-29T17:07:02;31.40;;;15.33;;
3997;SDS011;61314;53.444;9.902;2022-10-29T17:09:29;24.47;;;13.83;;
3997;SDS011;61314;53.444;9.902;2022-10-29T17:11:56;30.17;;;15.73;;
3997;SDS011;61314;53.444;9.902;2022-10-29T17:14:22;26.20;;;14.70;;
3997;SDS011;61314;53.444;9.902;2022-10-29T17:16:49;38.93;;;15.00;;